Time,TemperatureF,DewpointF,PressureIn,WindDirection,WindDirectionDegrees,WindSpeedMPH,WindSpeedGustMPH,Humidity,HourlyPrecipIn,Conditions,Clouds,dailyrainin,SoftwareType,DateUTC
2013-11-09 00:00:00,37.7,37.4,30.05,West,277,0.0,0.0,99,0.00,,,0.00,Wunderground v.1.15,2013-11-09 08:00:00,
2013-11-09 00:10:00,37.5,37.2,30.05,West,277,0.0,0.0,99,0.00,,,0.00,Wunderground v.1.15,2013-11-09 08:10:00,
2013-11-09 00:20:00,37.2,36.9,30.05,West,277,0.0,0.0,99,0.00,,,0.00,Wunderground v.1.15,2013-11-09 08:20:00,
2013-11-09 00:30:00,36.9,36.6,30.05,West,277,0.0,0.0,99,0.00,,,0.00,Wunderground v.1.15,2013-11-09 08:30:00,
2013-11-09 00:40:00,36.7,36.4,30.05,West,277,0.0,0.0,99,0.00,,,0.00,Wunderground v.1.15,2013-11-09 08:40:00,
2013-11-09 00:50:00,36.7,36.4,30.06,West,277,0.0,0.0,99,0.00,,,0.00,Wunderground v.1.15,2013-11-09 08:50:00,
2013-11-09 01:05:00,36.5,36.2,30.05,West,277,0.0,0.0,99,0.00,,,0.00,Wunderground v.1.15,2013-11-09 09:05:00,
2013-11-09 01:15:00,36.5,36.2,30.05,West,277,0.0,0.0,99,0.00,,,0.00,Wunderground v.1.15,2013-11-09 09:15:00,
2013-11-09 01:25:00,36.5,36.2,30.05,West,277,0.0,0.0,99,0.00,,,0.00,Wunderground v.1.15,2013-11-09 09:25:00,
2013-11-09 01:35:00,36.5,36.2,30.04,West,277,0.0,0.0,99,0.00,,,0.00,Wunderground v.1.15,2013-11-09 09:35:00,
2013-11-09 01:40:00,36.5,36.2,30.04,West,277,0.0,0.0,99,0.00,,,0.00,Wunderground v.1.15,2013-11-09 09:40:00,
2013-11-09 01:50:00,36.4,36.1,30.04,West,277,0.0,0.0,99,0.00,,,0.00,Wunderground v.1.15,2013-11-09 09:50:00,
2013-11-09 02:00:00,36.2,35.9,30.04,West,277,0.0,0.0,99,0.00,,,0.00,Wunderground v.1.15,2013-11-09 10:00:00,
2013-11-09 02:10:00,36.1,35.8,30.05,WNW,290,1.0,1.0,99,0.00,,,0.00,Wunderground v.1.15,2013-11-09 10:10:00,
2013-11-09 02:20:00,36.2,35.9,30.04,WNW,290,0.0,0.0,99,0.00,,,0.00,Wunderground v.1.15,2013-11-09 10:20:00,
2013-11-09 02:30:00,36.2,35.9,30.04,WNW,290,0.0,0.0,99,0.00,,,0.01,Wunderground v.1.15,2013-11-09 10:30:00,
2013-11-09 02:40:00,36.1,35.8,30.04,WNW,290,0.0,0.0,99,0.00,,,0.01,Wunderground v.1.15,2013-11-09 10:40:00,
2013-11-09 02:50:00,36.1,35.8,30.04,WNW,290,0.0,0.0,99,0.00,,,0.01,Wunderground v.1.15,2013-11-09 10:50:00,
2013-11-09 03:00:00,36.2,35.9,30.04,WNW,290,0.0,0.0,99,0.00,,,0.01,Wunderground v.1.15,2013-11-09 11:00:00,
2013-11-09 03:10:00,36.4,36.4,30.03,WNW,290,0.0,0.0,100,0.00,,,0.01,Wunderground v.1.15,2013-11-09 11:10:00,
2013-11-09 03:20:00,36.4,36.4,30.04,WNW,290,0.0,0.0,100,0.00,,,0.01,Wunderground v.1.15,2013-11-09 11:20:00,
2013-11-09 03:30:00,36.4,36.4,30.03,WNW,290,0.0,0.0,100,0.00,,,0.01,Wunderground v.1.15,2013-11-09 11:30:00,
2013-11-09 03:35:00,36.4,36.4,30.03,WNW,290,0.0,0.0,100,0.00,,,0.01,Wunderground v.1.15,2013-11-09 11:35:00,
2013-11-09 03:45:00,36.3,36.3,30.02,WNW,290,0.0,0.0,100,0.00,,,0.01,Wunderground v.1.15,2013-11-09 11:45:00,
2013-11-09 03:50:00,36.3,36.3,30.02,WNW,290,0.0,0.0,100,0.00,,,0.01,Wunderground v.1.15,2013-11-09 11:50:00,
2013-11-09 04:00:00,36.2,36.2,30.02,WNW,290,0.0,0.0,100,0.00,,,0.01,Wunderground v.1.15,2013-11-09 12:00:00,
2013-11-09 04:10:00,36.2,36.2,30.02,WNW,290,0.0,0.0,100,0.00,,,0.01,Wunderground v.1.15,2013-11-09 12:10:00,
2013-11-09 04:20:00,36.1,36.1,30.02,WNW,290,0.0,0.0,100,0.00,,,0.01,Wunderground v.1.15,2013-11-09 12:20:00,
2013-11-09 04:35:00,36.2,36.2,30.02,WNW,290,0.0,0.0,100,0.00,,,0.01,Wunderground v.1.15,2013-11-09 12:35:00,
2013-11-09 04:45:00,36.2,36.2,30.02,WNW,290,0.0,0.0,100,0.00,,,0.01,Wunderground v.1.15,2013-11-09 12:45:00,
2013-11-09 04:50:00,36.2,36.2,30.01,WNW,290,0.0,0.0,100,0.00,,,0.01,Wunderground v.1.15,2013-11-09 12:50:00,
2013-11-09 05:00:00,36.4,36.4,30.01,WNW,290,0.0,0.0,100,0.00,,,0.01,Wunderground v.1.15,2013-11-09 13:00:00,
2013-11-09 05:05:00,36.4,36.4,30.01,WNW,290,0.0,0.0,100,0.00,,,0.01,Wunderground v.1.15,2013-11-09 13:05:00,
2013-11-09 05:15:00,36.6,36.6,30.01,WNW,290,0.0,0.0,100,0.00,,,0.01,Wunderground v.1.15,2013-11-09 13:15:00,
2013-11-09 05:25:00,36.7,36.7,30.00,WNW,290,0.0,0.0,100,0.00,,,0.01,Wunderground v.1.15,2013-11-09 13:25:00,
2013-11-09 05:35:00,36.7,36.7,30.00,WNW,290,0.0,0.0,100,0.00,,,0.01,Wunderground v.1.15,2013-11-09 13:35:00,
2013-11-09 05:45:00,36.8,36.8,30.00,WNW,290,0.0,0.0,100,0.00,,,0.01,Wunderground v.1.15,2013-11-09 13:45:00,
2013-11-09 05:50:00,36.8,36.8,30.00,WNW,290,0.0,0.0,100,0.00,,,0.01,Wunderground v.1.15,2013-11-09 13:50:00,
2013-11-09 06:00:00,36.8,36.8,30.01,WNW,290,0.0,0.0,100,0.00,,,0.01,Wunderground v.1.15,2013-11-09 14:00:00,
2013-11-09 06:10:00,36.9,36.9,30.01,WNW,290,0.0,0.0,100,0.00,,,0.01,Wunderground v.1.15,2013-11-09 14:10:00,
2013-11-09 06:20:00,36.9,36.9,30.01,WNW,290,0.0,0.0,100,0.00,,,0.01,Wunderground v.1.15,2013-11-09 14:20:00,
2013-11-09 06:30:00,37.0,37.0,30.01,WNW,290,0.0,0.0,100,0.00,,,0.01,Wunderground v.1.15,2013-11-09 14:30:00,
2013-11-09 06:40:00,37.1,37.1,30.01,WNW,290,0.0,0.0,100,0.00,,,0.01,Wunderground v.1.15,2013-11-09 14:40:00,
2013-11-09 06:45:00,37.1,37.1,30.01,WNW,290,0.0,0.0,100,0.00,,,0.01,Wunderground v.1.15,2013-11-09 14:45:00,
2013-11-09 06:55:00,37.2,37.2,30.01,WNW,290,0.0,0.0,100,0.00,,,0.01,Wunderground v.1.15,2013-11-09 14:55:00,
2013-11-09 07:00:00,37.2,37.2,30.02,WNW,290,0.0,0.0,100,0.00,,,0.01,Wunderground v.1.15,2013-11-09 15:00:00,
2013-11-09 07:10:00,37.3,37.3,30.02,WNW,290,0.0,0.0,100,0.00,,,0.01,Wunderground v.1.15,2013-11-09 15:10:00,
2013-11-09 07:20:00,37.5,37.5,30.02,WNW,290,0.0,0.0,100,0.00,,,0.01,Wunderground v.1.15,2013-11-09 15:20:00,
2013-11-09 07:25:00,37.5,37.5,30.02,WNW,290,0.0,0.0,100,0.00,,,0.01,Wunderground v.1.15,2013-11-09 15:25:00,
2013-11-09 07:35:00,37.7,37.7,30.01,WNW,290,0.0,0.0,100,0.00,,,0.01,Wunderground v.1.15,2013-11-09 15:35:00,
2013-11-09 07:45:00,38.0,38.0,30.01,WNW,290,0.0,0.0,100,0.00,,,0.01,Wunderground v.1.15,2013-11-09 15:45:00,
2013-11-09 07:55:00,38.1,38.1,30.02,WNW,290,0.0,0.0,100,0.00,,,0.01,Wunderground v.1.15,2013-11-09 15:55:00,
2013-11-09 08:00:00,38.2,38.2,30.02,WNW,290,0.0,0.0,100,0.00,,,0.01,Wunderground v.1.15,2013-11-09 16:00:00,
2013-11-09 08:10:00,38.4,38.4,30.02,WNW,290,0.0,0.0,100,0.00,,,0.01,Wunderground v.1.15,2013-11-09 16:10:00,
2013-11-09 08:20:00,38.9,38.9,30.02,WNW,290,0.0,0.0,100,0.00,,,0.01,Wunderground v.1.15,2013-11-09 16:20:00,
2013-11-09 08:30:00,39.4,39.4,30.02,WNW,290,0.0,0.0,100,0.00,,,0.01,Wunderground v.1.15,2013-11-09 16:30:00,
2013-11-09 08:40:00,39.6,39.6,30.02,WNW,290,0.0,0.0,100,0.00,,,0.01,Wunderground v.1.15,2013-11-09 16:40:00,
2013-11-09 08:45:00,39.7,39.7,30.03,WNW,290,0.0,0.0,100,0.00,,,0.01,Wunderground v.1.15,2013-11-09 16:45:00,
2013-11-09 08:55:00,40.1,40.1,30.03,WNW,290,0.0,0.0,100,0.00,,,0.01,Wunderground v.1.15,2013-11-09 16:55:00,
2013-11-09 09:00:00,40.3,40.3,30.03,WNW,290,0.0,0.0,100,0.00,,,0.01,Wunderground v.1.15,2013-11-09 17:00:00,
2013-11-09 09:10:00,41.2,41.2,30.02,WNW,290,0.0,0.0,100,0.00,,,0.01,Wunderground v.1.15,2013-11-09 17:10:00,
2013-11-09 09:15:00,41.9,41.9,30.02,WNW,290,0.0,0.0,100,0.00,,,0.01,Wunderground v.1.15,2013-11-09 17:15:00,
2013-11-09 09:25:00,42.8,42.8,30.02,WNW,289,0.0,0.0,100,0.00,,,0.01,Wunderground v.1.15,2013-11-09 17:25:00,
2013-11-09 09:35:00,43.2,43.2,30.02,WNW,289,0.0,0.0,100,0.00,,,0.01,Wunderground v.1.15,2013-11-09 17:35:00,
2013-11-09 09:45:00,43.8,43.8,30.03,WNW,289,0.0,0.0,100,0.00,,,0.01,Wunderground v.1.15,2013-11-09 17:45:00,
2013-11-09 09:55:00,45.0,45.0,30.02,West,267,0.0,0.0,100,0.00,,,0.01,Wunderground v.1.15,2013-11-09 17:55:00,
2013-11-09 10:00:00,45.3,45.3,30.02,ESE,111,0.0,0.0,100,0.00,,,0.01,Wunderground v.1.15,2013-11-09 18:00:00,
2013-11-09 10:10:00,45.8,45.8,30.02,ESE,111,0.0,0.0,100,0.00,,,0.01,Wunderground v.1.15,2013-11-09 18:10:00,
2013-11-09 10:20:00,46.4,46.4,30.03,ESE,111,0.0,0.0,100,0.00,,,0.01,Wunderground v.1.15,2013-11-09 18:20:00,
2013-11-09 10:30:00,46.7,46.7,30.02,North,11,0.0,0.0,100,0.00,,,0.01,Wunderground v.1.15,2013-11-09 18:30:00,
2013-11-09 10:40:00,47.5,47.5,30.02,North,355,0.0,0.0,100,0.00,,,0.01,Wunderground v.1.15,2013-11-09 18:40:00,
2013-11-09 10:50:00,48.7,47.9,30.02,North,355,0.0,1.0,97,0.00,,,0.01,Wunderground v.1.15,2013-11-09 18:50:00,
2013-11-09 11:00:00,49.6,48.2,30.02,North,360,0.0,0.0,95,0.00,,,0.01,Wunderground v.1.15,2013-11-09 19:00:00,
2013-11-09 11:10:00,51.1,48.9,30.02,NE,35,1.0,1.0,92,0.00,,,0.01,Wunderground v.1.15,2013-11-09 19:10:00,
2013-11-09 11:15:00,51.4,48.0,30.01,North,5,1.0,1.0,88,0.00,,,0.01,Wunderground v.1.15,2013-11-09 19:15:00,
2013-11-09 11:25:00,52.1,48.7,30.01,NW,317,0.0,1.0,88,0.00,,,0.01,Wunderground v.1.15,2013-11-09 19:25:00,
2013-11-09 11:35:00,53.2,50.3,30.01,North,5,1.0,1.0,90,0.00,,,0.01,Wunderground v.1.15,2013-11-09 19:35:00,
2013-11-09 11:45:00,54.3,49.6,30.01,NNE,23,1.0,1.0,84,0.00,,,0.01,Wunderground v.1.15,2013-11-09 19:45:00,
2013-11-09 11:55:00,54.9,50.5,30.00,NNE,23,0.0,0.0,85,0.00,,,0.01,Wunderground v.1.15,2013-11-09 19:55:00,
2013-11-09 12:00:00,55.0,48.9,30.00,NNW,342,0.0,0.0,80,0.00,,,0.01,Wunderground v.1.15,2013-11-09 20:00:00,
2013-11-09 12:10:00,55.7,48.9,30.00,NNE,15,1.0,1.0,78,0.00,,,0.01,Wunderground v.1.15,2013-11-09 20:10:00,
2013-11-09 12:15:00,56.0,50.6,30.00,NNE,15,0.0,0.0,82,0.00,,,0.01,Wunderground v.1.15,2013-11-09 20:15:00,
2013-11-09 12:25:00,56.6,48.4,29.99,North,10,1.0,2.0,74,0.00,,,0.01,Wunderground v.1.15,2013-11-09 20:25:00,
2013-11-09 12:35:00,57.3,49.1,29.99,NNE,19,1.0,1.0,74,0.00,,,0.01,Wunderground v.1.15,2013-11-09 20:35:00,
2013-11-09 12:45:00,57.9,48.9,29.99,North,11,1.0,1.0,72,0.00,,,0.01,Wunderground v.1.15,2013-11-09 20:45:00,
2013-11-09 12:55:00,57.7,48.4,29.99,NNE,13,0.0,1.0,71,0.00,,,0.01,Wunderground v.1.15,2013-11-09 20:55:00,
2013-11-09 13:00:00,57.8,47.3,29.99,NW,306,0.0,0.0,68,0.00,,,0.01,Wunderground v.1.15,2013-11-09 21:00:00,
2013-11-09 13:10:00,57.6,48.6,29.98,WNW,286,0.0,0.0,72,0.00,,,0.01,Wunderground v.1.15,2013-11-09 21:10:00,
2013-11-09 13:15:00,57.8,47.3,29.99,WNW,294,1.0,1.0,68,0.00,,,0.01,Wunderground v.1.15,2013-11-09 21:15:00,
2013-11-09 13:25:00,58.0,48.3,29.98,WNW,301,1.0,1.0,70,0.00,,,0.01,Wunderground v.1.15,2013-11-09 21:25:00,
2013-11-09 13:35:00,58.1,48.7,29.98,WNW,302,1.0,1.0,71,0.00,,,0.01,Wunderground v.1.15,2013-11-09 21:35:00,
2013-11-09 13:45:00,57.8,49.2,29.98,WNW,302,0.0,1.0,73,0.00,,,0.01,Wunderground v.1.15,2013-11-09 21:45:00,
2013-11-09 13:55:00,58.1,48.4,29.98,WNW,302,0.0,0.0,70,0.00,,,0.01,Wunderground v.1.15,2013-11-09 21:55:00,
2013-11-09 14:00:00,58.4,48.3,29.98,WNW,302,0.0,0.0,69,0.00,,,0.01,Wunderground v.1.15,2013-11-09 22:00:00,
2013-11-09 14:10:00,58.0,50.1,29.98,WNW,302,0.0,0.0,75,0.00,,,0.01,Wunderground v.1.15,2013-11-09 22:10:00,
2013-11-09 14:15:00,57.8,48.8,29.98,WNW,302,0.0,0.0,72,0.00,,,0.01,Wunderground v.1.15,2013-11-09 22:15:00,
2013-11-09 14:25:00,57.3,49.4,29.98,WNW,302,0.0,0.0,75,0.00,,,0.01,Wunderground v.1.15,2013-11-09 22:25:00,
2013-11-09 14:35:00,57.1,49.2,29.98,WNW,301,0.0,0.0,75,0.00,,,0.01,Wunderground v.1.15,2013-11-09 22:35:00,
2013-11-09 14:45:00,57.7,50.9,29.98,WNW,301,0.0,0.0,78,0.00,,,0.01,Wunderground v.1.15,2013-11-09 22:45:00,
2013-11-09 14:55:00,58.2,51.7,29.98,NNW,331,0.0,1.0,79,0.00,,,0.01,Wunderground v.1.15,2013-11-09 22:55:00,
2013-11-09 15:00:00,58.2,51.4,29.98,WNW,294,1.0,1.0,78,0.00,,,0.01,Wunderground v.1.15,2013-11-09 23:00:00,
2013-11-09 15:10:00,58.0,51.9,29.98,NNW,327,0.0,1.0,80,0.00,,,0.01,Wunderground v.1.15,2013-11-09 23:10:00,
2013-11-09 15:15:00,57.6,52.1,29.98,NNW,327,0.0,0.0,82,0.00,,,0.01,Wunderground v.1.15,2013-11-09 23:15:00,
2013-11-09 15:25:00,57.2,51.4,29.98,WNW,286,0.0,0.0,81,0.00,,,0.01,Wunderground v.1.15,2013-11-09 23:25:00,
2013-11-09 15:30:00,57.1,51.7,29.98,WNW,291,0.0,0.0,82,0.00,,,0.01,Wunderground v.1.15,2013-11-09 23:30:00,
2013-11-09 15:40:00,56.6,51.8,29.97,WNW,291,0.0,0.0,84,0.00,,,0.01,Wunderground v.1.15,2013-11-09 23:40:00,
2013-11-09 15:50:00,56.1,51.3,29.98,WNW,291,0.0,0.0,84,0.00,,,0.01,Wunderground v.1.15,2013-11-09 23:50:00,
2013-11-09 15:55:00,55.9,51.5,29.98,WNW,291,0.0,0.0,85,0.00,,,0.01,Wunderground v.1.15,2013-11-09 23:55:00,
2013-11-09 16:00:00,55.7,51.6,29.98,WNW,291,0.0,0.0,86,0.00,,,0.01,Wunderground v.1.15,2013-11-10 00:00:00,
2013-11-09 16:10:00,55.3,51.5,29.98,WNW,291,0.0,0.0,87,0.00,,,0.01,Wunderground v.1.15,2013-11-10 00:10:00,
2013-11-09 16:20:00,54.9,51.1,29.98,WNW,291,0.0,0.0,87,0.00,,,0.01,Wunderground v.1.15,2013-11-10 00:20:00,
2013-11-09 16:30:00,54.5,51.0,29.98,WNW,291,0.0,0.0,88,0.00,,,0.01,Wunderground v.1.15,2013-11-10 00:30:00,
2013-11-09 16:40:00,54.1,50.6,29.98,WNW,291,0.0,0.0,88,0.00,,,0.01,Wunderground v.1.15,2013-11-10 00:40:00,
2013-11-09 16:50:00,53.6,50.1,29.98,WNW,291,0.0,0.0,88,0.00,,,0.01,Wunderground v.1.15,2013-11-10 00:50:00,
2013-11-09 17:05:00,52.9,49.4,29.97,WNW,291,0.0,0.0,88,0.00,,,0.01,Wunderground v.1.15,2013-11-10 01:05:00,
2013-11-09 17:10:00,52.7,49.5,29.97,WNW,291,0.0,0.0,89,0.00,,,0.01,Wunderground v.1.15,2013-11-10 01:10:00,
2013-11-09 17:15:00,52.4,49.6,29.97,WNW,291,0.0,0.0,90,0.00,,,0.01,Wunderground v.1.15,2013-11-10 01:15:00,
2013-11-09 17:25:00,52.1,49.3,29.97,WNW,291,0.0,0.0,90,0.00,,,0.01,Wunderground v.1.15,2013-11-10 01:25:00,
2013-11-09 17:35:00,51.9,49.1,29.97,WNW,291,0.0,0.0,90,0.00,,,0.01,Wunderground v.1.15,2013-11-10 01:35:00,
2013-11-09 17:45:00,51.8,49.0,29.97,WNW,291,0.0,0.0,90,0.00,,,0.01,Wunderground v.1.15,2013-11-10 01:45:00,
2013-11-09 17:55:00,51.7,49.2,29.97,WNW,291,0.0,0.0,91,0.00,,,0.01,Wunderground v.1.15,2013-11-10 01:55:00,
2013-11-09 18:00:00,51.5,49.3,29.97,WNW,291,0.0,0.0,92,0.00,,,0.01,Wunderground v.1.15,2013-11-10 02:00:00,
2013-11-09 18:10:00,51.3,49.1,29.97,WNW,291,0.0,0.0,92,0.00,,,0.01,Wunderground v.1.15,2013-11-10 02:10:00,
2013-11-09 18:20:00,51.1,48.9,29.97,WNW,291,0.0,0.0,92,0.00,,,0.01,Wunderground v.1.15,2013-11-10 02:20:00,
2013-11-09 18:30:00,51.0,49.0,29.97,WNW,291,0.0,0.0,93,0.00,,,0.01,Wunderground v.1.15,2013-11-10 02:30:00,
2013-11-09 18:40:00,50.8,48.8,29.97,WNW,291,0.0,0.0,93,0.00,,,0.01,Wunderground v.1.15,2013-11-10 02:40:00,
2013-11-09 18:50:00,50.5,48.8,29.97,WNW,291,0.0,0.0,94,0.00,,,0.01,Wunderground v.1.15,2013-11-10 02:50:00,
2013-11-09 18:55:00,50.4,48.7,29.97,WNW,291,0.0,0.0,94,0.00,,,0.01,Wunderground v.1.15,2013-11-10 02:55:00,
2013-11-09 19:00:00,50.3,48.9,29.97,WNW,291,0.0,0.0,95,0.00,,,0.01,Wunderground v.1.15,2013-11-10 03:00:00,
2013-11-09 19:10:00,50.1,48.7,29.97,WNW,291,0.0,0.0,95,0.00,,,0.01,Wunderground v.1.15,2013-11-10 03:10:00,
2013-11-09 19:15:00,50.0,48.6,29.97,WNW,291,0.0,0.0,95,0.00,,,0.01,Wunderground v.1.15,2013-11-10 03:15:00,
2013-11-09 19:25:00,49.8,48.4,29.97,WNW,291,0.0,0.0,95,0.00,,,0.01,Wunderground v.1.15,2013-11-10 03:25:00,
2013-11-09 19:35:00,49.7,48.6,29.97,WNW,291,0.0,0.0,96,0.00,,,0.01,Wunderground v.1.15,2013-11-10 03:35:00,
2013-11-09 19:45:00,49.5,48.4,29.97,WNW,291,0.0,0.0,96,0.00,,,0.01,Wunderground v.1.15,2013-11-10 03:45:00,
2013-11-09 19:55:00,49.4,48.3,29.97,WNW,291,0.0,0.0,96,0.00,,,0.01,Wunderground v.1.15,2013-11-10 03:55:00,
2013-11-09 20:00:00,49.4,48.3,29.97,WNW,291,0.0,0.0,96,0.00,,,0.01,Wunderground v.1.15,2013-11-10 04:00:00,
2013-11-09 20:10:00,49.3,48.5,29.97,WNW,291,0.0,0.0,97,0.00,,,0.01,Wunderground v.1.15,2013-11-10 04:10:00,
2013-11-09 20:20:00,49.3,48.5,29.97,WNW,291,0.0,0.0,97,0.00,,,0.01,Wunderground v.1.15,2013-11-10 04:20:00,
2013-11-09 20:30:00,49.3,48.5,29.97,WNW,291,0.0,0.0,97,0.00,,,0.01,Wunderground v.1.15,2013-11-10 04:30:00,
2013-11-09 20:40:00,49.2,48.4,29.97,WNW,291,0.0,0.0,97,0.00,,,0.01,Wunderground v.1.15,2013-11-10 04:40:00,
2013-11-09 20:50:00,49.1,48.6,29.97,WNW,291,0.0,0.0,98,0.00,,,0.01,Wunderground v.1.15,2013-11-10 04:50:00,
2013-11-09 21:00:00,48.9,48.1,29.97,WNW,291,0.0,0.0,97,0.00,,,0.01,Wunderground v.1.15,2013-11-10 05:00:00,
2013-11-09 21:05:00,48.9,48.4,29.97,WNW,291,0.0,0.0,98,0.00,,,0.01,Wunderground v.1.15,2013-11-10 05:05:00,
2013-11-09 21:10:00,48.9,48.4,29.97,WNW,291,0.0,0.0,98,0.00,,,0.01,Wunderground v.1.15,2013-11-10 05:10:00,
2013-11-09 21:15:00,49.0,48.5,29.97,WNW,291,0.0,0.0,98,0.00,,,0.01,Wunderground v.1.15,2013-11-10 05:15:00,
2013-11-09 21:25:00,48.9,48.4,29.98,WNW,291,0.0,0.0,98,0.00,,,0.01,Wunderground v.1.15,2013-11-10 05:25:00,
2013-11-09 21:35:00,48.7,48.2,29.98,WNW,291,0.0,0.0,98,0.00,,,0.01,Wunderground v.1.15,2013-11-10 05:35:00,
2013-11-09 21:45:00,48.5,48.0,29.98,WNW,291,0.0,0.0,98,0.00,,,0.01,Wunderground v.1.15,2013-11-10 05:45:00,
2013-11-09 21:50:00,48.3,47.8,29.98,WNW,291,0.0,0.0,98,0.00,,,0.01,Wunderground v.1.15,2013-11-10 05:50:00,
2013-11-09 21:55:00,48.2,47.7,29.98,WNW,291,0.0,0.0,98,0.00,,,0.01,Wunderground v.1.15,2013-11-10 05:55:00,
2013-11-09 22:00:00,48.1,47.6,29.98,WNW,291,0.0,0.0,98,0.00,,,0.01,Wunderground v.1.15,2013-11-10 06:00:00,
2013-11-09 22:05:00,48.1,47.6,29.98,WNW,291,0.0,0.0,98,0.00,,,0.01,Wunderground v.1.15,2013-11-10 06:05:00,
2013-11-09 22:15:00,47.9,47.4,29.98,WNW,291,0.0,0.0,98,0.00,,,0.01,Wunderground v.1.15,2013-11-10 06:15:00,
2013-11-09 22:25:00,47.8,47.5,29.98,WNW,291,0.0,0.0,99,0.00,,,0.01,Wunderground v.1.15,2013-11-10 06:25:00,
2013-11-09 22:35:00,48.0,47.7,29.98,WNW,291,0.0,0.0,99,0.00,,,0.01,Wunderground v.1.15,2013-11-10 06:35:00,
2013-11-09 22:40:00,48.0,47.7,29.98,WNW,291,0.0,0.0,99,0.00,,,0.01,Wunderground v.1.15,2013-11-10 06:40:00,
2013-11-09 22:50:00,47.8,47.5,29.98,WNW,291,0.0,0.0,99,0.00,,,0.01,Wunderground v.1.15,2013-11-10 06:50:00,
2013-11-09 23:00:00,47.4,46.9,29.98,WNW,291,0.0,0.0,98,0.00,,,0.01,Wunderground v.1.15,2013-11-10 07:00:00,
2013-11-09 23:10:00,47.2,46.9,29.99,WNW,291,0.0,0.0,99,0.00,,,0.01,Wunderground v.1.15,2013-11-10 07:10:00,
2013-11-09 23:15:00,47.0,46.5,29.98,WNW,291,0.0,0.0,98,0.00,,,0.01,Wunderground v.1.15,2013-11-10 07:15:00,
2013-11-09 23:25:00,46.9,46.6,29.99,WNW,291,0.0,0.0,99,0.00,,,0.01,Wunderground v.1.15,2013-11-10 07:25:00,
2013-11-09 23:35:00,46.8,46.5,29.98,WNW,291,0.0,0.0,99,0.00,,,0.01,Wunderground v.1.15,2013-11-10 07:35:00,
2013-11-09 23:45:00,46.7,46.4,29.98,WNW,291,0.0,0.0,99,0.00,,,0.01,Wunderground v.1.15,2013-11-10 07:45:00,
2013-11-09 23:55:00,46.7,46.4,29.98,WNW,291,0.0,0.0,99,0.00,,,0.01,Wunderground v.1.15,2013-11-10 07:55:00,